createdAt,value
2019-04-06T00:01:23.455Z,6.43
2019-04-06T00:03:54.826Z,6.35
2019-04-06T00:06:26.283Z,6.32
2019-04-06T00:08:57.559Z,6.28
2019-04-06T00:11:28.951Z,6.22
2019-04-06T00:14:00.232Z,6.15
2019-04-06T00:16:31.610Z,6.04
2019-04-06T00:19:02.841Z,5.98
2019-04-06T00:21:34.067Z,6.00
2019-04-06T00:24:05.462Z,5.92
2019-04-06T00:27:01.680Z,5.78
2019-04-06T00:29:32.905Z,5.75
2019-04-06T00:32:11.901Z,5.71
2019-04-06T00:34:43.119Z,5.75
2019-04-06T00:37:14.537Z,5.63
2019-04-06T00:39:45.817Z,5.55
2019-04-06T00:42:17.231Z,5.54
2019-04-06T00:44:49.584Z,5.34
2019-04-06T00:47:20.889Z,5.20
2019-04-06T00:49:52.169Z,5.14
2019-04-06T00:52:23.432Z,5.02
2019-04-06T00:54:54.679Z,5.15
2019-04-06T00:57:26.022Z,5.06
2019-04-06T00:59:57.301Z,5.01
2019-04-06T01:02:28.683Z,4.87
2019-04-06T01:04:59.965Z,4.78
2019-04-06T01:07:31.475Z,4.78
2019-04-06T01:10:03.119Z,4.72
2019-04-06T01:12:34.509Z,4.69
2019-04-06T01:15:07.398Z,4.65
2019-04-06T01:17:38.721Z,4.67
2019-04-06T01:20:10.257Z,4.61
2019-04-06T01:22:41.570Z,4.59
2019-04-06T01:25:13.842Z,4.57
2019-04-06T01:27:45.135Z,4.49
2019-04-06T01:30:16.669Z,4.41
2019-04-06T01:32:47.934Z,4.34
2019-04-06T01:35:19.257Z,4.27
2019-04-06T01:37:50.618Z,4.26
2019-04-06T01:40:21.750Z,4.15
2019-04-06T01:42:54.155Z,4.14
2019-04-06T01:45:26.309Z,4.20
2019-04-06T01:47:57.754Z,4.18
2019-04-06T01:50:29.071Z,4.18
2019-04-06T01:53:00.420Z,4.18
2019-04-06T01:55:31.625Z,4.17
2019-04-06T01:58:02.934Z,4.17
2019-04-06T02:00:34.281Z,4.16
2019-04-06T02:03:05.601Z,4.10
2019-04-06T02:05:36.878Z,4.01
2019-04-06T02:08:08.225Z,3.94
2019-04-06T02:10:39.519Z,3.97
2019-04-06T02:13:10.854Z,3.87
2019-04-06T02:15:43.101Z,3.88
2019-04-06T02:18:14.409Z,3.88
2019-04-06T02:20:45.681Z,3.91
2019-04-06T02:23:17.031Z,3.89
2019-04-06T02:25:48.270Z,3.92
2019-04-06T02:28:19.567Z,3.97
2019-04-06T02:30:58.201Z,3.97
2019-04-06T02:33:31.097Z,3.96
2019-04-06T02:36:06.726Z,3.92
2019-04-06T02:38:45.731Z,3.92
2019-04-06T02:41:21.357Z,3.84
2019-04-06T02:43:52.688Z,3.78
2019-04-06T02:46:24.848Z,3.75
2019-04-06T02:48:56.197Z,3.76
2019-04-06T02:51:27.551Z,3.73
2019-04-06T02:53:58.767Z,3.79
2019-04-06T02:56:44.341Z,3.80
2019-04-06T02:59:03.077Z,3.75
2019-04-06T03:01:34.343Z,3.70
2019-04-06T03:04:05.719Z,3.64
2019-04-06T03:06:36.938Z,3.64
2019-04-06T03:09:11.314Z,3.52
2019-04-06T03:11:41.245Z,3.52
2019-04-06T03:14:12.511Z,3.54
2019-04-06T03:16:43.718Z,3.49
2019-04-06T03:19:15.000Z,3.43
2019-04-06T03:21:46.245Z,3.53
2019-04-06T03:24:17.541Z,3.50
2019-04-06T03:27:00.990Z,3.52
2019-04-06T03:29:21.905Z,3.41
2019-04-06T03:31:53.164Z,3.41
2019-04-06T03:34:24.475Z,3.49
2019-04-06T03:36:55.721Z,3.50
2019-04-06T03:39:27.077Z,3.52
2019-04-06T03:41:58.410Z,3.46
2019-04-06T03:44:29.736Z,3.44
2019-04-06T03:47:02.123Z,3.42
2019-04-06T03:49:33.486Z,3.48
2019-04-06T03:52:04.799Z,3.57
2019-04-06T03:54:36.216Z,3.70
2019-04-06T03:57:14.419Z,3.59
2019-04-06T03:59:40.716Z,3.58
2019-04-06T04:02:12.064Z,3.72
2019-04-06T04:04:43.319Z,3.94
2019-04-06T04:07:14.585Z,3.99
2019-04-06T04:09:46.291Z,4.07
2019-04-06T04:12:17.563Z,4.11
2019-04-06T04:14:48.908Z,4.22
2019-04-06T04:17:20.513Z,4.13
2019-04-06T04:19:52.089Z,4.31
2019-04-06T04:22:23.425Z,4.37
2019-04-06T04:24:55.900Z,4.31
2019-04-06T04:27:30.198Z,4.39
2019-04-06T04:30:00.487Z,4.24
2019-04-06T04:32:31.834Z,4.29
2019-04-06T04:35:03.224Z,4.20
2019-04-06T04:37:34.514Z,4.48
2019-04-06T04:40:05.942Z,4.38
2019-04-06T04:42:38.096Z,4.49
2019-04-06T04:45:09.608Z,4.60
2019-04-06T04:47:41.696Z,4.67
2019-04-06T04:50:13.191Z,4.70
2019-04-06T04:52:44.537Z,4.94
2019-04-06T04:55:15.842Z,5.17
2019-04-06T04:57:47.093Z,5.23
2019-04-06T05:00:18.381Z,5.22
2019-04-06T05:02:50.654Z,5.20
2019-04-06T05:05:21.891Z,5.24
2019-04-06T05:07:53.213Z,5.22
2019-04-06T05:10:24.571Z,5.37
2019-04-06T05:12:55.749Z,5.62
2019-04-06T05:15:35.953Z,5.74
2019-04-06T05:18:07.145Z,5.86
2019-04-06T05:20:38.474Z,5.82
2019-04-06T05:23:09.801Z,5.90
2019-04-06T05:25:41.174Z,6.14
2019-04-06T05:28:12.465Z,6.53
2019-04-06T05:30:43.789Z,6.55
2019-04-06T05:33:15.114Z,6.93
2019-04-06T05:35:46.431Z,7.33
2019-04-06T05:38:17.775Z,8.03
2019-04-06T05:40:49.080Z,8.08
2019-04-06T05:43:20.349Z,7.93
2019-04-06T05:45:51.674Z,8.03
2019-04-06T05:48:23.957Z,7.90
2019-04-06T05:50:55.527Z,7.91
2019-04-06T05:53:26.867Z,8.26
2019-04-06T05:55:58.191Z,8.47
2019-04-06T05:58:29.564Z,8.48
2019-04-06T06:01:03.699Z,8.50
2019-04-06T06:03:34.057Z,8.48
2019-04-06T06:06:05.433Z,8.73
2019-04-06T06:08:38.260Z,8.76
2019-04-06T06:11:09.664Z,8.91
2019-04-06T06:13:40.935Z,9.20
2019-04-06T06:16:12.370Z,9.46
2019-04-06T06:18:43.697Z,9.60
2019-04-06T06:21:15.006Z,9.61
2019-04-06T06:23:46.444Z,9.80
2019-04-06T06:26:17.981Z,9.75
2019-04-06T06:28:50.451Z,10.00
2019-04-06T06:31:21.900Z,10.35
2019-04-06T06:33:53.253Z,10.36
2019-04-06T06:36:24.618Z,10.40
2019-04-06T06:38:55.949Z,10.52
2019-04-06T06:41:27.421Z,10.95
2019-04-06T06:43:58.875Z,11.13
2019-04-06T06:46:30.253Z,11.19
2019-04-06T06:49:02.551Z,11.15
2019-04-06T06:51:34.280Z,11.39
2019-04-06T06:54:07.456Z,11.44
2019-04-06T06:56:38.724Z,11.07
2019-04-06T06:59:10.187Z,11.45
2019-04-06T07:01:41.525Z,11.45
2019-04-06T07:04:12.742Z,11.55
2019-04-06T07:06:43.988Z,11.58
2019-04-06T07:09:16.402Z,11.60
2019-04-06T07:11:47.798Z,12.09
2019-04-06T07:14:19.408Z,12.19
2019-04-06T07:16:50.718Z,12.38
2019-04-06T07:19:22.067Z,12.53
2019-04-06T07:21:53.511Z,12.47
2019-04-06T07:24:25.003Z,12.25
2019-04-06T07:26:56.683Z,12.28
2019-04-06T07:29:28.156Z,12.43
2019-04-06T07:32:02.686Z,13.05
2019-04-06T07:34:34.975Z,12.99
2019-04-06T07:37:08.416Z,12.87
2019-04-06T07:39:40.664Z,13.00
2019-04-06T07:42:12.593Z,13.32
2019-04-06T07:44:44.589Z,13.34
2019-04-06T07:47:16.383Z,13.57
2019-04-06T07:49:49.057Z,13.83
2019-04-06T07:52:20.459Z,13.80
2019-04-06T07:54:51.822Z,13.88
2019-04-06T07:57:23.249Z,14.00
2019-04-06T07:59:54.665Z,13.96
2019-04-06T08:02:26.038Z,14.25
2019-04-06T08:04:57.493Z,13.95
2019-04-06T08:07:29.123Z,13.99
2019-04-06T08:10:01.996Z,13.91
2019-04-06T08:12:34.708Z,13.97
2019-04-06T08:15:08.086Z,13.96
2019-04-06T08:17:40.689Z,13.95
2019-04-06T08:20:12.220Z,14.16
2019-04-06T08:22:43.778Z,14.45
2019-04-06T08:25:16.424Z,14.49
2019-04-06T08:27:47.904Z,14.28
2019-04-06T08:30:19.415Z,14.88
2019-04-06T08:32:50.744Z,14.64
2019-04-06T08:35:25.994Z,14.56
2019-04-06T08:37:55.200Z,14.63
2019-04-06T08:40:26.660Z,14.89
2019-04-06T08:42:58.422Z,14.74
2019-04-06T08:45:29.823Z,14.58
2019-04-06T08:48:01.205Z,14.72
2019-04-06T08:50:33.678Z,14.94
2019-04-06T08:53:05.031Z,15.38
2019-04-06T08:55:36.713Z,14.99
2019-04-06T08:58:08.214Z,15.15
2019-04-06T09:00:39.534Z,15.07
2019-04-06T09:03:11.908Z,14.76
2019-04-06T09:05:43.358Z,15.00
2019-04-06T09:08:16.539Z,15.26
2019-04-06T09:10:48.078Z,15.04
2019-04-06T09:13:19.526Z,15.08
2019-04-06T09:15:51.029Z,15.46
2019-04-06T09:18:22.721Z,15.62
2019-04-06T09:20:54.190Z,15.51
2019-04-06T09:23:25.892Z,15.53
2019-04-06T09:25:57.859Z,15.72
2019-04-06T09:28:29.724Z,15.88
2019-04-06T09:31:02.183Z,15.75
2019-04-06T09:33:33.702Z,15.56
2019-04-06T09:36:05.197Z,15.53
2019-04-06T09:38:36.592Z,15.25
2019-04-06T09:41:08.045Z,15.16
2019-04-06T09:43:39.416Z,15.26
2019-04-06T09:46:15.671Z,15.58
2019-04-06T09:49:01.021Z,15.37
2019-04-06T09:51:52.954Z,15.50
2019-04-06T09:54:29.822Z,15.37
2019-04-06T09:57:05.831Z,15.62
2019-04-06T09:59:48.475Z,15.24
2019-04-06T10:02:21.699Z,15.26
2019-04-06T10:05:10.039Z,15.83
2019-04-06T10:07:43.061Z,15.66
2019-04-06T10:10:29.035Z,15.78
2019-04-06T10:13:11.022Z,16.05
2019-04-06T10:15:46.776Z,16.02
2019-04-06T10:18:35.969Z,15.89
2019-04-06T10:21:20.853Z,16.10
2019-04-06T10:24:09.983Z,15.80
2019-04-06T10:26:42.896Z,16.07
2019-04-06T10:29:31.114Z,16.11
2019-04-06T10:32:06.833Z,15.90
2019-04-06T10:34:39.797Z,16.32
2019-04-06T10:39:09.938Z,16.76
2019-04-06T10:41:48.888Z,16.01
2019-04-06T10:44:28.093Z,15.95
2019-04-06T10:47:16.753Z,16.15
2019-04-06T10:49:52.721Z,16.05
2019-04-06T10:52:26.988Z,15.94
2019-04-06T10:55:00.216Z,15.81
2019-04-06T10:57:41.946Z,15.95
2019-04-06T11:00:31.229Z,15.97
2019-04-06T11:03:04.231Z,16.01
2019-04-06T11:05:49.446Z,15.77
2019-04-06T11:08:22.435Z,16.16
2019-04-06T11:11:04.702Z,16.57
2019-04-06T11:13:37.610Z,16.60
2019-04-06T11:16:22.802Z,16.47
2019-04-06T11:19:01.548Z,16.46
2019-04-06T11:21:46.569Z,16.56
2019-04-06T11:24:35.829Z,16.26
2019-04-06T11:27:27.264Z,16.19
2019-04-06T11:30:14.747Z,16.26
2019-04-06T11:33:02.028Z,16.30
2019-04-06T11:35:50.847Z,16.48
2019-04-06T11:38:23.802Z,16.69
2019-04-06T11:40:56.717Z,16.51
2019-04-06T11:43:33.530Z,16.61
2019-04-06T11:46:12.615Z,16.57
2019-04-06T11:49:01.985Z,16.56
2019-04-06T11:51:37.921Z,16.76
2019-04-06T11:54:17.063Z,16.67
2019-04-06T11:56:56.141Z,16.57
2019-04-06T11:59:29.120Z,16.52
2019-04-06T12:02:02.937Z,16.21
2019-04-06T12:04:38.781Z,16.35
2019-04-06T12:07:11.657Z,16.73
2019-04-06T12:10:00.801Z,16.47
2019-04-06T12:12:49.290Z,16.64
2019-04-06T12:15:25.100Z,16.62
2019-04-06T12:17:58.000Z,16.84
2019-04-06T12:20:30.980Z,16.63
2019-04-06T12:23:03.904Z,16.37
2019-04-06T12:25:39.828Z,16.56
2019-04-06T12:28:12.640Z,16.49
2019-04-06T12:31:01.830Z,16.67
2019-04-06T12:33:43.758Z,16.71
2019-04-06T12:36:19.645Z,17.20
2019-04-06T12:38:52.859Z,17.30
2019-04-06T12:41:26.256Z,17.37
2019-04-06T12:44:15.404Z,17.04
